sensor_id;sensor_type;location;lat;lon;timestamp;temperature;humidity
2030;DHT22;1020;48.854;8.830;2023-06-04T00:01:28;14.50;99.90
2030;DHT22;1020;48.854;8.830;2023-06-04T00:03:56;14.60;99.90
2030;DHT22;1020;48.854;8.830;2023-06-04T00:06:23;14.50;99.90
2030;DHT22;1020;48.854;8.830;2023-06-04T00:08:50;14.40;99.90
2030;DHT22;1020;48.854;8.830;2023-06-04T00:11:16;14.30;99.90
2030;DHT22;1020;48.854;8.830;2023-06-04T00:13:43;14.20;1.00
2030;DHT22;1020;48.854;8.830;2023-06-04T00:16:10;14.10;1.00
2030;DHT22;1020;48.854;8.830;2023-06-04T00:18:37;14.10;1.00
2030;DHT22;1020;48.854;8.830;2023-06-04T00:21:05;14.00;1.00
2030;DHT22;1020;48.854;8.830;2023-06-04T00:23:31;14.00;1.00
2030;DHT22;1020;48.854;8.830;2023-06-04T00:25:58;13.90;1.00
2030;DHT22;1020;48.854;8.830;2023-06-04T00:28:25;13.90;1.00
2030;DHT22;1020;48.854;8.830;2023-06-04T00:30:52;13.90;1.00
2030;DHT22;1020;48.854;8.830;2023-06-04T00:33:18;13.90;1.00
2030;DHT22;1020;48.854;8.830;2023-06-04T00:35:45;13.90;1.00
2030;DHT22;1020;48.854;8.830;2023-06-04T00:38:13;13.90;1.00
2030;DHT22;1020;48.854;8.830;2023-06-04T00:40:40;13.90;1.00
2030;DHT22;1020;48.854;8.830;2023-06-04T00:43:07;13.90;1.00
2030;DHT22;1020;48.854;8.830;2023-06-04T00:45:34;13.90;1.00
2030;DHT22;1020;48.854;8.830;2023-06-04T00:48:01;13.90;1.00
2030;DHT22;1020;48.854;8.830;2023-06-04T00:50:28;13.80;1.00
2030;DHT22;1020;48.854;8.830;2023-06-04T00:52:56;13.70;1.00
2030;DHT22;1020;48.854;8.830;2023-06-04T00:55:24;13.70;1.00
2030;DHT22;1020;48.854;8.830;2023-06-04T00:57:51;13.70;1.00
2030;DHT22;1020;48.854;8.830;2023-06-04T01:00:18;13.60;1.00
2030;DHT22;1020;48.854;8.830;2023-06-04T01:02:47;13.60;1.00
2030;DHT22;1020;48.854;8.830;2023-06-04T01:05:21;13.50;1.00
2030;DHT22;1020;48.854;8.830;2023-06-04T01:07:50;13.40;1.00
2030;DHT22;1020;48.854;8.830;2023-06-04T01:10:17;13.40;1.00
2030;DHT22;1020;48.854;8.830;2023-06-04T01:12:45;13.40;1.00
2030;DHT22;1020;48.854;8.830;2023-06-04T01:15:12;13.40;1.00
2030;DHT22;1020;48.854;8.830;2023-06-04T01:17:40;13.30;1.00
2030;DHT22;1020;48.854;8.830;2023-06-04T01:20:27;13.20;1.00
2030;DHT22;1020;48.854;8.830;2023-06-04T01:25:54;13.10;1.00
2030;DHT22;1020;48.854;8.830;2023-06-04T01:28:24;13.10;1.00
2030;DHT22;1020;48.854;8.830;2023-06-04T01:30:52;13.10;1.00
2030;DHT22;1020;48.854;8.830;2023-06-04T01:33:22;13.10;1.00
2030;DHT22;1020;48.854;8.830;2023-06-04T01:35:49;13.10;1.00
2030;DHT22;1020;48.854;8.830;2023-06-04T01:38:16;13.10;1.00
2030;DHT22;1020;48.854;8.830;2023-06-04T01:40:43;13.00;1.00
2030;DHT22;1020;48.854;8.830;2023-06-04T01:43:10;13.00;1.00
2030;DHT22;1020;48.854;8.830;2023-06-04T01:45:38;13.00;1.00
2030;DHT22;1020;48.854;8.830;2023-06-04T01:48:05;13.00;1.00
2030;DHT22;1020;48.854;8.830;2023-06-04T01:50:32;13.00;1.00
2030;DHT22;1020;48.854;8.830;2023-06-04T01:52:59;12.90;1.00
2030;DHT22;1020;48.854;8.830;2023-06-04T01:55:26;12.90;1.00
2030;DHT22;1020;48.854;8.830;2023-06-04T01:57:55;12.80;1.00
2030;DHT22;1020;48.854;8.830;2023-06-04T02:00:22;12.80;1.00
2030;DHT22;1020;48.854;8.830;2023-06-04T02:02:50;12.80;1.00
2030;DHT22;1020;48.854;8.830;2023-06-04T02:05:17;12.80;1.00
2030;DHT22;1020;48.854;8.830;2023-06-04T02:07:45;12.80;1.00
2030;DHT22;1020;48.854;8.830;2023-06-04T02:10:14;12.80;1.00
2030;DHT22;1020;48.854;8.830;2023-06-04T02:12:53;12.80;1.00
2030;DHT22;1020;48.854;8.830;2023-06-04T02:15:20;12.80;1.00
2030;DHT22;1020;48.854;8.830;2023-06-04T02:17:47;12.70;1.00
2030;DHT22;1020;48.854;8.830;2023-06-04T02:20:17;12.70;1.00
2030;DHT22;1020;48.854;8.830;2023-06-04T02:22:44;12.70;1.00
2030;DHT22;1020;48.854;8.830;2023-06-04T02:25:11;12.70;1.00
2030;DHT22;1020;48.854;8.830;2023-06-04T02:27:37;12.70;1.00
2030;DHT22;1020;48.854;8.830;2023-06-04T02:30:05;12.60;1.00
2030;DHT22;1020;48.854;8.830;2023-06-04T02:32:32;12.60;1.00
2030;DHT22;1020;48.854;8.830;2023-06-04T02:35:02;12.60;1.00
2030;DHT22;1020;48.854;8.830;2023-06-04T02:37:30;12.50;1.00
2030;DHT22;1020;48.854;8.830;2023-06-04T02:39:56;12.50;1.00
2030;DHT22;1020;48.854;8.830;2023-06-04T02:42:23;12.50;1.00
2030;DHT22;1020;48.854;8.830;2023-06-04T02:44:50;12.50;1.00
2030;DHT22;1020;48.854;8.830;2023-06-04T02:47:17;12.50;1.00
2030;DHT22;1020;48.854;8.830;2023-06-04T02:49:45;12.40;1.00
2030;DHT22;1020;48.854;8.830;2023-06-04T02:52:12;12.40;1.00
2030;DHT22;1020;48.854;8.830;2023-06-04T02:54:40;12.40;1.00
2030;DHT22;1020;48.854;8.830;2023-06-04T02:57:07;12.40;1.00
2030;DHT22;1020;48.854;8.830;2023-06-04T02:59:34;12.40;1.00
2030;DHT22;1020;48.854;8.830;2023-06-04T03:02:02;12.40;1.00
2030;DHT22;1020;48.854;8.830;2023-06-04T03:04:28;12.40;1.00
2030;DHT22;1020;48.854;8.830;2023-06-04T03:07:00;12.40;1.00
2030;DHT22;1020;48.854;8.830;2023-06-04T03:09:28;12.40;1.00
2030;DHT22;1020;48.854;8.830;2023-06-04T03:11:57;12.40;1.00
2030;DHT22;1020;48.854;8.830;2023-06-04T03:14:25;12.30;1.00
2030;DHT22;1020;48.854;8.830;2023-06-04T03:16:58;12.30;1.00
2030;DHT22;1020;48.854;8.830;2023-06-04T03:19:26;12.20;1.00
2030;DHT22;1020;48.854;8.830;2023-06-04T03:21:53;12.20;1.00
2030;DHT22;1020;48.854;8.830;2023-06-04T03:24:20;12.20;1.00
2030;DHT22;1020;48.854;8.830;2023-06-04T03:26:47;12.20;1.00
2030;DHT22;1020;48.854;8.830;2023-06-04T03:29:15;12.20;1.00
2030;DHT22;1020;48.854;8.830;2023-06-04T03:31:44;12.20;1.00
2030;DHT22;1020;48.854;8.830;2023-06-04T03:34:10;12.20;1.00
2030;DHT22;1020;48.854;8.830;2023-06-04T03:36:37;12.20;1.00
2030;DHT22;1020;48.854;8.830;2023-06-04T03:39:04;12.20;1.00
2030;DHT22;1020;48.854;8.830;2023-06-04T03:41:31;12.20;1.00
2030;DHT22;1020;48.854;8.830;2023-06-04T03:43:58;12.20;1.00
2030;DHT22;1020;48.854;8.830;2023-06-04T03:46:26;12.10;1.00
2030;DHT22;1020;48.854;8.830;2023-06-04T03:48:57;12.10;1.00
2030;DHT22;1020;48.854;8.830;2023-06-04T03:51:23;12.10;1.00
2030;DHT22;1020;48.854;8.830;2023-06-04T03:53:50;12.20;1.00
2030;DHT22;1020;48.854;8.830;2023-06-04T03:56:17;12.20;1.00
2030;DHT22;1020;48.854;8.830;2023-06-04T03:58:44;12.20;1.00
2030;DHT22;1020;48.854;8.830;2023-06-04T04:01:11;12.20;1.00
2030;DHT22;1020;48.854;8.830;2023-06-04T04:03:40;12.10;1.00
2030;DHT22;1020;48.854;8.830;2023-06-04T04:06:09;12.10;1.00
2030;DHT22;1020;48.854;8.830;2023-06-04T04:08:36;12.20;1.00
2030;DHT22;1020;48.854;8.830;2023-06-04T04:11:07;12.10;1.00
2030;DHT22;1020;48.854;8.830;2023-06-04T04:13:34;12.20;1.00
2030;DHT22;1020;48.854;8.830;2023-06-04T04:16:01;12.20;1.00
2030;DHT22;1020;48.854;8.830;2023-06-04T04:18:27;12.10;1.00
2030;DHT22;1020;48.854;8.830;2023-06-04T04:20:55;12.20;1.00
2030;DHT22;1020;48.854;8.830;2023-06-04T04:23:23;12.10;1.00
2030;DHT22;1020;48.854;8.830;2023-06-04T04:25:50;12.20;1.00
2030;DHT22;1020;48.854;8.830;2023-06-04T04:28:17;12.20;1.00
2030;DHT22;1020;48.854;8.830;2023-06-04T04:30:45;12.20;1.00
2030;DHT22;1020;48.854;8.830;2023-06-04T04:33:12;12.30;1.00
2030;DHT22;1020;48.854;8.830;2023-06-04T04:35:41;12.30;1.00
2030;DHT22;1020;48.854;8.830;2023-06-04T04:38:11;12.40;1.00
2030;DHT22;1020;48.854;8.830;2023-06-04T04:40:38;12.40;1.00
2030;DHT22;1020;48.854;8.830;2023-06-04T04:43:05;12.40;1.00
2030;DHT22;1020;48.854;8.830;2023-06-04T04:45:32;12.50;99.90
2030;DHT22;1020;48.854;8.830;2023-06-04T04:47:58;12.50;99.90
2030;DHT22;1020;48.854;8.830;2023-06-04T04:50:25;12.50;99.90
2030;DHT22;1020;48.854;8.830;2023-06-04T04:52:52;12.50;99.90
2030;DHT22;1020;48.854;8.830;2023-06-04T04:55:20;12.50;99.90
2030;DHT22;1020;48.854;8.830;2023-06-04T04:57:46;12.50;99.90
2030;DHT22;1020;48.854;8.830;2023-06-04T05:00:14;12.60;99.90
2030;DHT22;1020;48.854;8.830;2023-06-04T05:02:41;12.70;99.90
2030;DHT22;1020;48.854;8.830;2023-06-04T05:05:08;12.80;99.90
2030;DHT22;1020;48.854;8.830;2023-06-04T05:07:36;12.80;99.90
2030;DHT22;1020;48.854;8.830;2023-06-04T05:10:03;12.80;99.90
2030;DHT22;1020;48.854;8.830;2023-06-04T05:12:31;12.90;99.90
2030;DHT22;1020;48.854;8.830;2023-06-04T05:14:58;13.00;99.90
2030;DHT22;1020;48.854;8.830;2023-06-04T05:17:25;12.90;99.90
2030;DHT22;1020;48.854;8.830;2023-06-04T05:19:55;13.00;99.90
2030;DHT22;1020;48.854;8.830;2023-06-04T05:22:30;13.30;99.90
2030;DHT22;1020;48.854;8.830;2023-06-04T05:24:58;13.40;99.90
2030;DHT22;1020;48.854;8.830;2023-06-04T05:27:26;13.60;99.90
2030;DHT22;1020;48.854;8.830;2023-06-04T05:29:54;13.70;99.90
2030;DHT22;1020;48.854;8.830;2023-06-04T05:32:21;13.70;99.90
2030;DHT22;1020;48.854;8.830;2023-06-04T05:34:49;13.60;99.90
2030;DHT22;1020;48.854;8.830;2023-06-04T05:37:15;13.50;99.90
2030;DHT22;1020;48.854;8.830;2023-06-04T05:39:42;13.40;99.90
2030;DHT22;1020;48.854;8.830;2023-06-04T05:42:09;13.50;99.90
2030;DHT22;1020;48.854;8.830;2023-06-04T05:44:37;13.70;99.90
2030;DHT22;1020;48.854;8.830;2023-06-04T05:47:05;13.80;99.90
2030;DHT22;1020;48.854;8.830;2023-06-04T05:49:34;13.80;99.90
2030;DHT22;1020;48.854;8.830;2023-06-04T05:52:01;13.90;99.90
2030;DHT22;1020;48.854;8.830;2023-06-04T05:54:29;13.90;99.90
2030;DHT22;1020;48.854;8.830;2023-06-04T05:56:56;14.10;99.90
2030;DHT22;1020;48.854;8.830;2023-06-04T05:59:23;14.30;99.90
2030;DHT22;1020;48.854;8.830;2023-06-04T06:01:49;14.20;99.90
2030;DHT22;1020;48.854;8.830;2023-06-04T06:04:17;14.40;99.90
2030;DHT22;1020;48.854;8.830;2023-06-04T06:06:44;14.60;99.90
2030;DHT22;1020;48.854;8.830;2023-06-04T06:09:14;14.70;99.90
2030;DHT22;1020;48.854;8.830;2023-06-04T06:11:41;14.90;99.90
2030;DHT22;1020;48.854;8.830;2023-06-04T06:14:08;15.10;99.90
2030;DHT22;1020;48.854;8.830;2023-06-04T06:16:36;15.30;99.90
2030;DHT22;1020;48.854;8.830;2023-06-04T06:19:03;15.30;99.90
2030;DHT22;1020;48.854;8.830;2023-06-04T06:21:31;15.40;99.90
2030;DHT22;1020;48.854;8.830;2023-06-04T06:23:58;15.40;99.90
2030;DHT22;1020;48.854;8.830;2023-06-04T06:26:25;15.60;99.90
2030;DHT22;1020;48.854;8.830;2023-06-04T06:28:52;15.60;99.90
2030;DHT22;1020;48.854;8.830;2023-06-04T06:31:19;16.00;99.90
2030;DHT22;1020;48.854;8.830;2023-06-04T06:33:45;16.30;99.90
2030;DHT22;1020;48.854;8.830;2023-06-04T06:36:12;16.60;99.90
2030;DHT22;1020;48.854;8.830;2023-06-04T06:38:40;16.70;99.90
2030;DHT22;1020;48.854;8.830;2023-06-04T06:41:07;16.90;99.90
2030;DHT22;1020;48.854;8.830;2023-06-04T06:43:34;17.10;99.90
2030;DHT22;1020;48.854;8.830;2023-06-04T06:46:01;17.30;99.90
2030;DHT22;1020;48.854;8.830;2023-06-04T06:48:28;17.50;99.90
2030;DHT22;1020;48.854;8.830;2023-06-04T06:50:55;17.60;99.90
2030;DHT22;1020;48.854;8.830;2023-06-04T06:53:21;17.90;99.90
2030;DHT22;1020;48.854;8.830;2023-06-04T06:55:49;17.90;99.90
2030;DHT22;1020;48.854;8.830;2023-06-04T06:58:16;17.80;99.90
2030;DHT22;1020;48.854;8.830;2023-06-04T07:00:43;17.90;99.90
2030;DHT22;1020;48.854;8.830;2023-06-04T07:03:10;18.10;99.90
2030;DHT22;1020;48.854;8.830;2023-06-04T07:05:36;18.10;99.90
2030;DHT22;1020;48.854;8.830;2023-06-04T07:08:03;18.30;99.90
2030;DHT22;1020;48.854;8.830;2023-06-04T07:10:30;18.50;99.90
2030;DHT22;1020;48.854;8.830;2023-06-04T07:12:59;18.70;99.90
2030;DHT22;1020;48.854;8.830;2023-06-04T07:15:26;19.00;99.90
2030;DHT22;1020;48.854;8.830;2023-06-04T07:17:52;19.20;99.90
2030;DHT22;1020;48.854;8.830;2023-06-04T07:20:19;19.30;99.90
2030;DHT22;1020;48.854;8.830;2023-06-04T07:22:46;19.30;99.90
2030;DHT22;1020;48.854;8.830;2023-06-04T07:25:12;19.30;99.90
2030;DHT22;1020;48.854;8.830;2023-06-04T07:27:39;19.30;99.90
2030;DHT22;1020;48.854;8.830;2023-06-04T07:30:09;19.80;99.90
2030;DHT22;1020;48.854;8.830;2023-06-04T07:32:36;20.50;99.90
2030;DHT22;1020;48.854;8.830;2023-06-04T07:35:03;21.00;99.90
2030;DHT22;1020;48.854;8.830;2023-06-04T07:37:30;20.60;99.90
2030;DHT22;1020;48.854;8.830;2023-06-04T07:39:57;20.20;99.90
2030;DHT22;1020;48.854;8.830;2023-06-04T07:42:23;20.40;99.90
2030;DHT22;1020;48.854;8.830;2023-06-04T07:44:50;20.70;99.90
2030;DHT22;1020;48.854;8.830;2023-06-04T07:47:18;21.40;99.90
2030;DHT22;1020;48.854;8.830;2023-06-04T07:49:45;21.10;99.90
2030;DHT22;1020;48.854;8.830;2023-06-04T07:52:12;20.80;99.90
2030;DHT22;1020;48.854;8.830;2023-06-04T07:54:39;20.70;99.90
2030;DHT22;1020;48.854;8.830;2023-06-04T07:57:07;20.80;99.90
2030;DHT22;1020;48.854;8.830;2023-06-04T07:59:34;20.60;99.90
2030;DHT22;1020;48.854;8.830;2023-06-04T08:02:00;20.60;99.90
2030;DHT22;1020;48.854;8.830;2023-06-04T08:04:28;20.40;99.90
2030;DHT22;1020;48.854;8.830;2023-06-04T08:06:55;20.70;99.90
2030;DHT22;1020;48.854;8.830;2023-06-04T08:09:22;21.70;99.90
2030;DHT22;1020;48.854;8.830;2023-06-04T08:11:49;23.20;99.90
2030;DHT22;1020;48.854;8.830;2023-06-04T08:14:16;23.50;99.90
2030;DHT22;1020;48.854;8.830;2023-06-04T08:16:45;24.90;99.90
2030;DHT22;1020;48.854;8.830;2023-06-04T08:19:12;25.00;99.90
2030;DHT22;1020;48.854;8.830;2023-06-04T08:21:40;25.80;99.90
2030;DHT22;1020;48.854;8.830;2023-06-04T08:24:09;25.70;99.90
2030;DHT22;1020;48.854;8.830;2023-06-04T08:26:36;26.40;99.90
2030;DHT22;1020;48.854;8.830;2023-06-04T08:29:03;27.50;99.90
2030;DHT22;1020;48.854;8.830;2023-06-04T08:31:30;27.60;99.90
2030;DHT22;1020;48.854;8.830;2023-06-04T08:33:57;28.50;99.90
2030;DHT22;1020;48.854;8.830;2023-06-04T08:36:24;29.60;99.90
2030;DHT22;1020;48.854;8.830;2023-06-04T08:38:53;30.20;99.90
2030;DHT22;1020;48.854;8.830;2023-06-04T08:41:30;30.50;99.90
2030;DHT22;1020;48.854;8.830;2023-06-04T08:43:58;30.30;99.90
2030;DHT22;1020;48.854;8.830;2023-06-04T08:46:27;30.10;99.90
2030;DHT22;1020;48.854;8.830;2023-06-04T08:48:57;30.20;99.90
2030;DHT22;1020;48.854;8.830;2023-06-04T08:51:26;29.90;99.90
2030;DHT22;1020;48.854;8.830;2023-06-04T08:53:54;29.80;99.90
2030;DHT22;1020;48.854;8.830;2023-06-04T08:56:23;30.00;99.90
2030;DHT22;1020;48.854;8.830;2023-06-04T08:58:50;29.80;99.90
2030;DHT22;1020;48.854;8.830;2023-06-04T09:01:17;29.50;99.90
2030;DHT22;1020;48.854;8.830;2023-06-04T09:03:44;29.30;99.90
2030;DHT22;1020;48.854;8.830;2023-06-04T09:06:12;28.80;99.90
2030;DHT22;1020;48.854;8.830;2023-06-04T09:08:39;28.40;99.90
2030;DHT22;1020;48.854;8.830;2023-06-04T09:11:12;28.30;99.90
2030;DHT22;1020;48.854;8.830;2023-06-04T09:13:40;29.00;99.90
2030;DHT22;1020;48.854;8.830;2023-06-04T09:16:09;30.00;99.90
2030;DHT22;1020;48.854;8.830;2023-06-04T09:18:36;30.30;99.90
2030;DHT22;1020;48.854;8.830;2023-06-04T09:21:04;29.30;99.90
2030;DHT22;1020;48.854;8.830;2023-06-04T09:23:31;28.90;99.90
2030;DHT22;1020;48.854;8.830;2023-06-04T09:26:07;28.70;99.90
2030;DHT22;1020;48.854;8.830;2023-06-04T09:28:35;29.00;99.90
2030;DHT22;1020;48.854;8.830;2023-06-04T09:31:02;29.30;99.90
2030;DHT22;1020;48.854;8.830;2023-06-04T09:33:29;29.30;99.90
2030;DHT22;1020;48.854;8.830;2023-06-04T09:35:56;29.00;99.90
2030;DHT22;1020;48.854;8.830;2023-06-04T09:38:23;29.80;99.90
2030;DHT22;1020;48.854;8.830;2023-06-04T09:40:50;31.10;99.90
2030;DHT22;1020;48.854;8.830;2023-06-04T09:43:23;31.80;99.90
2030;DHT22;1020;48.854;8.830;2023-06-04T09:45:51;32.00;99.90
2030;DHT22;1020;48.854;8.830;2023-06-04T09:48:22;31.50;99.90
2030;DHT22;1020;48.854;8.830;2023-06-04T09:50:48;30.90;99.90
2030;DHT22;1020;48.854;8.830;2023-06-04T09:53:17;31.30;99.90
2030;DHT22;1020;48.854;8.830;2023-06-04T09:55:56;30.80;99.90
2030;DHT22;1020;48.854;8.830;2023-06-04T09:58:23;31.50;99.90
2030;DHT22;1020;48.854;8.830;2023-06-04T10:00:54;31.40;99.90
2030;DHT22;1020;48.854;8.830;2023-06-04T10:03:24;31.70;99.90
2030;DHT22;1020;48.854;8.830;2023-06-04T10:05:53;32.10;99.90
2030;DHT22;1020;48.854;8.830;2023-06-04T10:08:22;32.60;99.90
2030;DHT22;1020;48.854;8.830;2023-06-04T10:10:50;32.00;99.90
2030;DHT22;1020;48.854;8.830;2023-06-04T10:13:19;32.20;99.90
2030;DHT22;1020;48.854;8.830;2023-06-04T10:15:46;32.50;99.90
2030;DHT22;1020;48.854;8.830;2023-06-04T10:18:14;32.60;99.90
2030;DHT22;1020;48.854;8.830;2023-06-04T10:20:42;32.20;99.90
2030;DHT22;1020;48.854;8.830;2023-06-04T10:23:08;31.50;99.90
2030;DHT22;1020;48.854;8.830;2023-06-04T10:25:36;31.10;99.90
2030;DHT22;1020;48.854;8.830;2023-06-04T10:28:03;30.00;99.90
2030;DHT22;1020;48.854;8.830;2023-06-04T10:30:30;30.00;99.90
2030;DHT22;1020;48.854;8.830;2023-06-04T10:32:58;30.20;99.90
2030;DHT22;1020;48.854;8.830;2023-06-04T10:35:33;29.90;99.90
2030;DHT22;1020;48.854;8.830;2023-06-04T10:38:07;30.40;99.90
2030;DHT22;1020;48.854;8.830;2023-06-04T10:40:35;30.20;99.90
2030;DHT22;1020;48.854;8.830;2023-06-04T10:43:05;30.40;99.90
2030;DHT22;1020;48.854;8.830;2023-06-04T10:45:32;30.70;99.90
2030;DHT22;1020;48.854;8.830;2023-06-04T10:48:02;31.40;99.90
2030;DHT22;1020;48.854;8.830;2023-06-04T10:50:30;32.40;99.90
2030;DHT22;1020;48.854;8.830;2023-06-04T10:52:59;33.10;99.90
2030;DHT22;1020;48.854;8.830;2023-06-04T10:55:29;33.40;99.90
2030;DHT22;1020;48.854;8.830;2023-06-04T10:57:57;33.80;99.90
2030;DHT22;1020;48.854;8.830;2023-06-04T11:00:35;33.60;99.90
2030;DHT22;1020;48.854;8.830;2023-06-04T11:03:01;33.20;99.90
2030;DHT22;1020;48.854;8.830;2023-06-04T11:05:34;33.90;99.90
2030;DHT22;1020;48.854;8.830;2023-06-04T11:08:03;34.60;99.90
2030;DHT22;1020;48.854;8.830;2023-06-04T11:10:32;34.60;99.90
2030;DHT22;1020;48.854;8.830;2023-06-04T11:13:00;33.80;99.90
2030;DHT22;1020;48.854;8.830;2023-06-04T11:15:37;33.50;99.90
2030;DHT22;1020;48.854;8.830;2023-06-04T11:18:04;32.70;99.90
2030;DHT22;1020;48.854;8.830;2023-06-04T11:20:31;32.50;99.90
2030;DHT22;1020;48.854;8.830;2023-06-04T11:22:59;32.20;99.90
2030;DHT22;1020;48.854;8.830;2023-06-04T11:25:30;33.00;99.90
2030;DHT22;1020;48.854;8.830;2023-06-04T11:28:00;33.00;99.90
2030;DHT22;1020;48.854;8.830;2023-06-04T11:30:27;33.10;99.90
2030;DHT22;1020;48.854;8.830;2023-06-04T11:33:01;33.30;99.90
2030;DHT22;1020;48.854;8.830;2023-06-04T11:35:28;33.30;99.90
2030;DHT22;1020;48.854;8.830;2023-06-04T11:37:56;33.80;99.90
2030;DHT22;1020;48.854;8.830;2023-06-04T11:40:24;32.60;99.90
2030;DHT22;1020;48.854;8.830;2023-06-04T11:42:53;32.20;99.90
2030;DHT22;1020;48.854;8.830;2023-06-04T11:45:21;31.60;99.90
2030;DHT22;1020;48.854;8.830;2023-06-04T11:47:50;31.80;99.90
2030;DHT22;1020;48.854;8.830;2023-06-04T11:50:17;31.10;99.90
2030;DHT22;1020;48.854;8.830;2023-06-04T11:52:44;31.30;99.90
2030;DHT22;1020;48.854;8.830;2023-06-04T11:55:11;31.70;99.90
2030;DHT22;1020;48.854;8.830;2023-06-04T11:57:39;32.70;99.90
2030;DHT22;1020;48.854;8.830;2023-06-04T12:00:09;33.10;99.90
2030;DHT22;1020;48.854;8.830;2023-06-04T12:02:36;34.30;99.90
2030;DHT22;1020;48.854;8.830;2023-06-04T12:05:13;34.50;99.90
2030;DHT22;1020;48.854;8.830;2023-06-04T12:07:40;33.80;99.90
2030;DHT22;1020;48.854;8.830;2023-06-04T12:10:08;33.80;99.90
2030;DHT22;1020;48.854;8.830;2023-06-04T12:12:37;34.20;99.90
2030;DHT22;1020;48.854;8.830;2023-06-04T12:15:08;35.00;99.90
2030;DHT22;1020;48.854;8.830;2023-06-04T12:17:35;35.40;99.90
2030;DHT22;1020;48.854;8.830;2023-06-04T12:20:03;36.00;99.90
2030;DHT22;1020;48.854;8.830;2023-06-04T12:22:31;36.20;99.90
2030;DHT22;1020;48.854;8.830;2023-06-04T12:24:58;36.00;99.90
2030;DHT22;1020;48.854;8.830;2023-06-04T12:27:28;35.80;99.90
2030;DHT22;1020;48.854;8.830;2023-06-04T12:29:58;35.90;99.90
2030;DHT22;1020;48.854;8.830;2023-06-04T12:32:27;35.30;99.90
2030;DHT22;1020;48.854;8.830;2023-06-04T12:34:54;34.00;99.90
2030;DHT22;1020;48.854;8.830;2023-06-04T12:37:22;34.40;99.90
2030;DHT22;1020;48.854;8.830;2023-06-04T12:39:50;35.10;99.90
2030;DHT22;1020;48.854;8.830;2023-06-04T12:42:18;35.50;99.90
2030;DHT22;1020;48.854;8.830;2023-06-04T12:44:45;35.10;99.90
2030;DHT22;1020;48.854;8.830;2023-06-04T12:47:12;35.90;99.90
2030;DHT22;1020;48.854;8.830;2023-06-04T12:49:41;35.60;99.90
2030;DHT22;1020;48.854;8.830;2023-06-04T12:52:08;35.80;99.90
2030;DHT22;1020;48.854;8.830;2023-06-04T12:54:35;36.20;99.90
2030;DHT22;1020;48.854;8.830;2023-06-04T12:57:01;35.90;99.90
2030;DHT22;1020;48.854;8.830;2023-06-04T12:59:28;36.00;99.90
2030;DHT22;1020;48.854;8.830;2023-06-04T13:01:55;36.20;99.90
2030;DHT22;1020;48.854;8.830;2023-06-04T13:04:22;37.00;99.90
2030;DHT22;1020;48.854;8.830;2023-06-04T13:06:51;36.70;99.90
2030;DHT22;1020;48.854;8.830;2023-06-04T13:09:20;36.80;99.90
2030;DHT22;1020;48.854;8.830;2023-06-04T13:11:48;36.20;99.90
2030;DHT22;1020;48.854;8.830;2023-06-04T13:14:15;35.10;99.90
2030;DHT22;1020;48.854;8.830;2023-06-04T13:16:42;35.40;99.90
2030;DHT22;1020;48.854;8.830;2023-06-04T13:19:11;35.70;99.90
2030;DHT22;1020;48.854;8.830;2023-06-04T13:21:38;35.50;99.90
2030;DHT22;1020;48.854;8.830;2023-06-04T13:24:09;35.10;99.90
2030;DHT22;1020;48.854;8.830;2023-06-04T13:26:36;34.90;99.90
2030;DHT22;1020;48.854;8.830;2023-06-04T13:29:04;34.60;99.90
2030;DHT22;1020;48.854;8.830;2023-06-04T13:31:30;34.50;99.90
2030;DHT22;1020;48.854;8.830;2023-06-04T13:33:57;34.40;99.90
2030;DHT22;1020;48.854;8.830;2023-06-04T13:36:24;35.00;99.90
2030;DHT22;1020;48.854;8.830;2023-06-04T13:38:51;35.90;99.90
2030;DHT22;1020;48.854;8.830;2023-06-04T13:41:21;35.30;99.90
2030;DHT22;1020;48.854;8.830;2023-06-04T13:43:48;34.80;99.90
2030;DHT22;1020;48.854;8.830;2023-06-04T13:46:15;34.90;99.90
2030;DHT22;1020;48.854;8.830;2023-06-04T13:48:42;34.90;99.90
2030;DHT22;1020;48.854;8.830;2023-06-04T13:51:09;35.20;99.90
2030;DHT22;1020;48.854;8.830;2023-06-04T13:53:35;35.30;99.90
2030;DHT22;1020;48.854;8.830;2023-06-04T13:56:02;34.50;99.90
2030;DHT22;1020;48.854;8.830;2023-06-04T13:58:30;33.90;99.90
2030;DHT22;1020;48.854;8.830;2023-06-04T14:00:57;33.40;99.90
2030;DHT22;1020;48.854;8.830;2023-06-04T14:03:24;32.90;99.90
2030;DHT22;1020;48.854;8.830;2023-06-04T14:05:50;32.10;99.90
2030;DHT22;1020;48.854;8.830;2023-06-04T14:08:17;31.10;99.90
2030;DHT22;1020;48.854;8.830;2023-06-04T14:10:44;31.20;99.90
2030;DHT22;1020;48.854;8.830;2023-06-04T14:13:10;31.50;99.90
2030;DHT22;1020;48.854;8.830;2023-06-04T14:15:39;31.40;99.90
2030;DHT22;1020;48.854;8.830;2023-06-04T14:18:05;31.70;99.90
2030;DHT22;1020;48.854;8.830;2023-06-04T14:20:33;31.90;99.90
2030;DHT22;1020;48.854;8.830;2023-06-04T14:23:00;32.20;99.90
2030;DHT22;1020;48.854;8.830;2023-06-04T14:25:26;32.80;99.90
2030;DHT22;1020;48.854;8.830;2023-06-04T14:27:54;33.00;99.90
2030;DHT22;1020;48.854;8.830;2023-06-04T14:30:20;32.60;99.90
2030;DHT22;1020;48.854;8.830;2023-06-04T14:32:48;32.70;99.90
2030;DHT22;1020;48.854;8.830;2023-06-04T14:35:15;32.40;99.90
2030;DHT22;1020;48.854;8.830;2023-06-04T14:37:42;31.50;99.90
2030;DHT22;1020;48.854;8.830;2023-06-04T14:40:09;30.30;99.90
2030;DHT22;1020;48.854;8.830;2023-06-04T14:42:36;29.90;99.90
2030;DHT22;1020;48.854;8.830;2023-06-04T14:45:03;30.00;99.90
2030;DHT22;1020;48.854;8.830;2023-06-04T14:47:30;29.70;99.90
2030;DHT22;1020;48.854;8.830;2023-06-04T14:49:58;29.40;96.90
2030;DHT22;1020;48.854;8.830;2023-06-04T14:52:25;29.70;99.30
2030;DHT22;1020;48.854;8.830;2023-06-04T14:54:53;30.20;99.90
2030;DHT22;1020;48.854;8.830;2023-06-04T14:57:20;30.50;99.90
2030;DHT22;1020;48.854;8.830;2023-06-04T14:59:48;30.80;99.90
2030;DHT22;1020;48.854;8.830;2023-06-04T15:02:15;31.30;99.90
2030;DHT22;1020;48.854;8.830;2023-06-04T15:04:45;31.50;99.90
2030;DHT22;1020;48.854;8.830;2023-06-04T15:07:13;31.20;99.90
2030;DHT22;1020;48.854;8.830;2023-06-04T15:09:39;31.50;99.90
2030;DHT22;1020;48.854;8.830;2023-06-04T15:12:06;31.30;99.90
2030;DHT22;1020;48.854;8.830;2023-06-04T15:14:33;31.00;99.90
2030;DHT22;1020;48.854;8.830;2023-06-04T15:17:00;30.80;99.90
2030;DHT22;1020;48.854;8.830;2023-06-04T15:19:26;30.70;99.90
2030;DHT22;1020;48.854;8.830;2023-06-04T15:21:53;30.50;99.90
2030;DHT22;1020;48.854;8.830;2023-06-04T15:24:21;30.20;99.90
2030;DHT22;1020;48.854;8.830;2023-06-04T15:26:48;30.20;99.90
2030;DHT22;1020;48.854;8.830;2023-06-04T15:29:15;30.00;99.90
2030;DHT22;1020;48.854;8.830;2023-06-04T15:31:42;29.90;99.90
2030;DHT22;1020;48.854;8.830;2023-06-04T15:34:09;29.80;99.90
2030;DHT22;1020;48.854;8.830;2023-06-04T15:36:36;29.90;99.90
2030;DHT22;1020;48.854;8.830;2023-06-04T15:39:03;29.80;99.90
2030;DHT22;1020;48.854;8.830;2023-06-04T15:41:31;29.80;99.90
2030;DHT22;1020;48.854;8.830;2023-06-04T15:43:58;29.90;99.90
2030;DHT22;1020;48.854;8.830;2023-06-04T15:46:25;29.90;99.90
2030;DHT22;1020;48.854;8.830;2023-06-04T15:48:52;29.70;99.90
2030;DHT22;1020;48.854;8.830;2023-06-04T15:51:18;29.80;99.90
2030;DHT22;1020;48.854;8.830;2023-06-04T15:53:45;30.20;99.90
2030;DHT22;1020;48.854;8.830;2023-06-04T15:56:12;30.20;99.90
2030;DHT22;1020;48.854;8.830;2023-06-04T15:58:43;30.20;99.90
2030;DHT22;1020;48.854;8.830;2023-06-04T16:01:10;30.20;99.90
2030;DHT22;1020;48.854;8.830;2023-06-04T16:03:37;30.30;99.90
2030;DHT22;1020;48.854;8.830;2023-06-04T16:06:03;30.10;99.90
2030;DHT22;1020;48.854;8.830;2023-06-04T16:08:30;30.20;99.90
2030;DHT22;1020;48.854;8.830;2023-06-04T16:10:57;29.80;99.90
2030;DHT22;1020;48.854;8.830;2023-06-04T16:13:24;29.50;99.90